sensor_id;sensor_type;location;lat;lon;timestamp;P1;durP1;ratioP1;P2;durP2;ratioP2
81006;SDS011;70472;47.592;17.640;2023-07-13T00:00:26;1.80;;;1.80;;
81006;SDS011;70472;47.592;17.640;2023-07-13T00:00:59;2.13;;;2.13;;
81006;SDS011;70472;47.592;17.640;2023-07-13T00:01:32;1.93;;;1.93;;
81006;SDS011;70472;47.592;17.640;2023-07-13T00:02:04;2.07;;;2.07;;
81006;SDS011;70472;47.592;17.640;2023-07-13T00:02:37;2.33;;;2.33;;
81006;SDS011;70472;47.592;17.640;2023-07-13T00:03:09;2.00;;;2.00;;
81006;SDS011;70472;47.592;17.640;2023-07-13T00:03:42;1.67;;;1.67;;
81006;SDS011;70472;47.592;17.640;2023-07-13T00:04:14;1.90;;;1.90;;
81006;SDS011;70472;47.592;17.640;2023-07-13T00:04:52;1.73;;;1.73;;
81006;SDS011;70472;47.592;17.640;2023-07-13T00:05:24;1.73;;;1.73;;
81006;SDS011;70472;47.592;17.640;2023-07-13T00:05:57;1.83;;;1.83;;
81006;SDS011;70472;47.592;17.640;2023-07-13T00:06:32;1.83;;;1.83;;
81006;SDS011;70472;47.592;17.640;2023-07-13T00:07:04;1.93;;;1.93;;
81006;SDS011;70472;47.592;17.640;2023-07-13T00:07:37;1.97;;;1.97;;
81006;SDS011;70472;47.592;17.640;2023-07-13T00:08:09;1.97;;;1.97;;
81006;SDS011;70472;47.592;17.640;2023-07-13T00:08:42;2.03;;;2.03;;
81006;SDS011;70472;47.592;17.640;2023-07-13T00:09:16;1.70;;;1.70;;
81006;SDS011;70472;47.592;17.640;2023-07-13T00:09:50;2.10;;;2.10;;
81006;SDS011;70472;47.592;17.640;2023-07-13T00:10:24;1.90;;;1.90;;
81006;SDS011;70472;47.592;17.640;2023-07-13T00:10:56;2.07;;;2.07;;
81006;SDS011;70472;47.592;17.640;2023-07-13T00:11:29;2.00;;;2.00;;
81006;SDS011;70472;47.592;17.640;2023-07-13T00:12:01;1.83;;;1.83;;
81006;SDS011;70472;47.592;17.640;2023-07-13T00:12:35;2.00;;;2.00;;
81006;SDS011;70472;47.592;17.640;2023-07-13T00:13:09;2.00;;;2.00;;
81006;SDS011;70472;47.592;17.640;2023-07-13T00:13:41;2.03;;;2.03;;
81006;SDS011;70472;47.592;17.640;2023-07-13T00:14:15;2.13;;;2.13;;
81006;SDS011;70472;47.592;17.640;2023-07-13T00:14:47;2.17;;;2.17;;
81006;SDS011;70472;47.592;17.640;2023-07-13T00:15:22;2.20;;;2.20;;
81006;SDS011;70472;47.592;17.640;2023-07-13T00:15:57;2.00;;;2.00;;
81006;SDS011;70472;47.592;17.640;2023-07-13T00:16:30;1.97;;;1.97;;
81006;SDS011;70472;47.592;17.640;2023-07-13T00:17:03;2.27;;;2.27;;
81006;SDS011;70472;47.592;17.640;2023-07-13T00:17:35;2.67;;;2.67;;
81006;SDS011;70472;47.592;17.640;2023-07-13T00:18:08;1.97;;;1.97;;
81006;SDS011;70472;47.592;17.640;2023-07-13T00:18:42;1.83;;;1.83;;
81006;SDS011;70472;47.592;17.640;2023-07-13T00:19:15;2.13;;;2.13;;
81006;SDS011;70472;47.592;17.640;2023-07-13T00:19:47;2.03;;;2.03;;
81006;SDS011;70472;47.592;17.640;2023-07-13T00:20:21;2.00;;;2.00;;
81006;SDS011;70472;47.592;17.640;2023-07-13T00:20:56;1.87;;;1.87;;
81006;SDS011;70472;47.592;17.640;2023-07-13T00:21:28;1.80;;;1.80;;
81006;SDS011;70472;47.592;17.640;2023-07-13T00:22:01;1.93;;;1.93;;
81006;SDS011;70472;47.592;17.640;2023-07-13T00:22:33;1.70;;;1.70;;
81006;SDS011;70472;47.592;17.640;2023-07-13T00:23:06;2.03;;;2.03;;
81006;SDS011;70472;47.592;17.640;2023-07-13T00:23:39;1.97;;;1.97;;
81006;SDS011;70472;47.592;17.640;2023-07-13T00:24:15;1.73;;;1.73;;
81006;SDS011;70472;47.592;17.640;2023-07-13T00:24:49;1.83;;;1.83;;
81006;SDS011;70472;47.592;17.640;2023-07-13T00:25:22;1.77;;;1.77;;
81006;SDS011;70472;47.592;17.640;2023-07-13T00:25:57;1.87;;;1.87;;
81006;SDS011;70472;47.592;17.640;2023-07-13T00:26:29;2.60;;;2.60;;
81006;SDS011;70472;47.592;17.640;2023-07-13T00:27:02;2.47;;;2.47;;
81006;SDS011;70472;47.592;17.640;2023-07-13T00:27:34;2.40;;;2.40;;
81006;SDS011;70472;47.592;17.640;2023-07-13T00:28:07;2.47;;;2.47;;
81006;SDS011;70472;47.592;17.640;2023-07-13T00:28:39;2.17;;;2.17;;
81006;SDS011;70472;47.592;17.640;2023-07-13T00:29:12;2.23;;;2.23;;
81006;SDS011;70472;47.592;17.640;2023-07-13T00:29:45;2.67;;;2.67;;
81006;SDS011;70472;47.592;17.640;2023-07-13T00:30:17;2.43;;;2.43;;
81006;SDS011;70472;47.592;17.640;2023-07-13T00:30:50;2.37;;;2.37;;
81006;SDS011;70472;47.592;17.640;2023-07-13T00:31:22;2.47;;;2.47;;
81006;SDS011;70472;47.592;17.640;2023-07-13T00:31:55;2.53;;;2.53;;
81006;SDS011;70472;47.592;17.640;2023-07-13T00:32:27;2.13;;;2.13;;
81006;SDS011;70472;47.592;17.640;2023-07-13T00:33:00;2.33;;;2.33;;
81006;SDS011;70472;47.592;17.640;2023-07-13T00:33:39;2.37;;;2.37;;
81006;SDS011;70472;47.592;17.640;2023-07-13T00:34:13;2.23;;;2.23;;
81006;SDS011;70472;47.592;17.640;2023-07-13T00:34:45;2.13;;;2.13;;
81006;SDS011;70472;47.592;17.640;2023-07-13T00:35:17;2.33;;;2.33;;
81006;SDS011;70472;47.592;17.640;2023-07-13T00:35:50;2.43;;;2.43;;
81006;SDS011;70472;47.592;17.640;2023-07-13T00:36:22;2.17;;;2.17;;
81006;SDS011;70472;47.592;17.640;2023-07-13T00:36:55;2.30;;;2.30;;
81006;SDS011;70472;47.592;17.640;2023-07-13T00:37:28;2.53;;;2.53;;
81006;SDS011;70472;47.592;17.640;2023-07-13T00:38:01;2.47;;;2.47;;
81006;SDS011;70472;47.592;17.640;2023-07-13T00:38:33;2.63;;;2.63;;
81006;SDS011;70472;47.592;17.640;2023-07-13T00:39:06;2.50;;;2.50;;
81006;SDS011;70472;47.592;17.640;2023-07-13T00:39:39;2.50;;;2.50;;
81006;SDS011;70472;47.592;17.640;2023-07-13T00:40:12;2.70;;;2.70;;
81006;SDS011;70472;47.592;17.640;2023-07-13T00:40:46;2.67;;;2.67;;
81006;SDS011;70472;47.592;17.640;2023-07-13T00:41:18;2.30;;;2.30;;
81006;SDS011;70472;47.592;17.640;2023-07-13T00:41:51;2.30;;;2.30;;
81006;SDS011;70472;47.592;17.640;2023-07-13T00:42:24;2.70;;;2.70;;
81006;SDS011;70472;47.592;17.640;2023-07-13T00:42:57;2.57;;;2.57;;
81006;SDS011;70472;47.592;17.640;2023-07-13T00:43:31;2.40;;;2.40;;
81006;SDS011;70472;47.592;17.640;2023-07-13T00:44:03;2.40;;;2.40;;
81006;SDS011;70472;47.592;17.640;2023-07-13T00:44:36;2.53;;;2.53;;
81006;SDS011;70472;47.592;17.640;2023-07-13T00:47:02;2.83;;;2.83;;
81006;SDS011;70472;47.592;17.640;2023-07-13T00:47:35;2.57;;;2.57;;
81006;SDS011;70472;47.592;17.640;2023-07-13T00:48:07;2.40;;;2.40;;
81006;SDS011;70472;47.592;17.640;2023-07-13T00:48:41;2.30;;;2.30;;
81006;SDS011;70472;47.592;17.640;2023-07-13T00:49:20;2.67;;;2.67;;
81006;SDS011;70472;47.592;17.640;2023-07-13T00:49:55;2.60;;;2.60;;
81006;SDS011;70472;47.592;17.640;2023-07-13T00:50:28;2.03;;;2.03;;
81006;SDS011;70472;47.592;17.640;2023-07-13T00:51:01;1.97;;;1.97;;
81006;SDS011;70472;47.592;17.640;2023-07-13T00:51:36;2.70;;;2.70;;
81006;SDS011;70472;47.592;17.640;2023-07-13T00:52:17;2.67;;;2.67;;
81006;SDS011;70472;47.592;17.640;2023-07-13T00:52:50;2.87;;;2.87;;
81006;SDS011;70472;47.592;17.640;2023-07-13T00:53:27;2.70;;;2.70;;
81006;SDS011;70472;47.592;17.640;2023-07-13T00:54:05;2.53;;;2.53;;
81006;SDS011;70472;47.592;17.640;2023-07-13T00:54:43;2.73;;;2.73;;
81006;SDS011;70472;47.592;17.640;2023-07-13T00:55:18;2.47;;;2.47;;
81006;SDS011;70472;47.592;17.640;2023-07-13T00:55:53;2.47;;;2.47;;
81006;SDS011;70472;47.592;17.640;2023-07-13T00:56:28;2.53;;;2.53;;
81006;SDS011;70472;47.592;17.640;2023-07-13T00:57:05;2.30;;;2.30;;
81006;SDS011;70472;47.592;17.640;2023-07-13T00:57:46;2.53;;;2.53;;
81006;SDS011;70472;47.592;17.640;2023-07-13T00:58:19;2.63;;;2.63;;
81006;SDS011;70472;47.592;17.640;2023-07-13T00:58:52;2.37;;;2.37;;
81006;SDS011;70472;47.592;17.640;2023-07-13T00:59:25;2.43;;;2.43;;
81006;SDS011;70472;47.592;17.640;2023-07-13T00:59:59;2.10;;;2.10;;
81006;SDS011;70472;47.592;17.640;2023-07-13T01:00:37;2.20;;;2.20;;
81006;SDS011;70472;47.592;17.640;2023-07-13T01:01:11;2.83;;;2.83;;
81006;SDS011;70472;47.592;17.640;2023-07-13T01:01:45;2.87;;;2.87;;
81006;SDS011;70472;47.592;17.640;2023-07-13T01:02:18;2.17;;;2.17;;
81006;SDS011;70472;47.592;17.640;2023-07-13T01:02:52;2.83;;;2.83;;
81006;SDS011;70472;47.592;17.640;2023-07-13T01:03:24;3.07;;;3.07;;
81006;SDS011;70472;47.592;17.640;2023-07-13T01:03:58;2.70;;;2.70;;
81006;SDS011;70472;47.592;17.640;2023-07-13T01:04:30;2.83;;;2.83;;
81006;SDS011;70472;47.592;17.640;2023-07-13T01:05:12;2.70;;;2.70;;
81006;SDS011;70472;47.592;17.640;2023-07-13T01:05:48;2.27;;;2.27;;
81006;SDS011;70472;47.592;17.640;2023-07-13T01:06:22;2.67;;;2.67;;
81006;SDS011;70472;47.592;17.640;2023-07-13T01:06:55;2.67;;;2.67;;
81006;SDS011;70472;47.592;17.640;2023-07-13T01:07:29;2.77;;;2.77;;
81006;SDS011;70472;47.592;17.640;2023-07-13T01:08:02;2.63;;;2.63;;
81006;SDS011;70472;47.592;17.640;2023-07-13T01:08:37;2.60;;;2.60;;
81006;SDS011;70472;47.592;17.640;2023-07-13T01:09:10;2.47;;;2.47;;
81006;SDS011;70472;47.592;17.640;2023-07-13T01:09:43;2.77;;;2.77;;
81006;SDS011;70472;47.592;17.640;2023-07-13T01:10:16;3.27;;;3.27;;
81006;SDS011;70472;47.592;17.640;2023-07-13T01:10:54;2.60;;;2.60;;
81006;SDS011;70472;47.592;17.640;2023-07-13T01:11:29;2.70;;;2.70;;
81006;SDS011;70472;47.592;17.640;2023-07-13T01:12:02;2.93;;;2.93;;
81006;SDS011;70472;47.592;17.640;2023-07-13T01:12:36;2.67;;;2.67;;
81006;SDS011;70472;47.592;17.640;2023-07-13T01:13:09;2.83;;;2.83;;
81006;SDS011;70472;47.592;17.640;2023-07-13T01:13:42;3.23;;;3.23;;
81006;SDS011;70472;47.592;17.640;2023-07-13T01:14:15;3.07;;;3.07;;
81006;SDS011;70472;47.592;17.640;2023-07-13T01:14:47;2.80;;;2.80;;
81006;SDS011;70472;47.592;17.640;2023-07-13T01:16:22;2.83;;;2.83;;
81006;SDS011;70472;47.592;17.640;2023-07-13T01:16:59;2.87;;;2.87;;
81006;SDS011;70472;47.592;17.640;2023-07-13T01:17:33;2.73;;;2.73;;
81006;SDS011;70472;47.592;17.640;2023-07-13T01:18:07;3.13;;;3.13;;
81006;SDS011;70472;47.592;17.640;2023-07-13T01:18:44;3.17;;;3.17;;
81006;SDS011;70472;47.592;17.640;2023-07-13T01:20:11;2.77;;;2.77;;
81006;SDS011;70472;47.592;17.640;2023-07-13T01:21:34;2.70;;;2.70;;
81006;SDS011;70472;47.592;17.640;2023-07-13T01:22:08;2.73;;;2.73;;
81006;SDS011;70472;47.592;17.640;2023-07-13T01:22:44;2.63;;;2.63;;
81006;SDS011;70472;47.592;17.640;2023-07-13T01:23:18;2.93;;;2.93;;
81006;SDS011;70472;47.592;17.640;2023-07-13T01:23:52;2.80;;;2.80;;
81006;SDS011;70472;47.592;17.640;2023-07-13T01:24:25;2.50;;;2.50;;
81006;SDS011;70472;47.592;17.640;2023-07-13T01:24:58;3.00;;;3.00;;
81006;SDS011;70472;47.592;17.640;2023-07-13T01:25:30;2.97;;;2.97;;
81006;SDS011;70472;47.592;17.640;2023-07-13T01:26:02;2.20;;;2.20;;
81006;SDS011;70472;47.592;17.640;2023-07-13T01:26:35;1.93;;;1.93;;
81006;SDS011;70472;47.592;17.640;2023-07-13T01:27:12;2.20;;;2.20;;
81006;SDS011;70472;47.592;17.640;2023-07-13T01:27:48;2.33;;;2.33;;
81006;SDS011;70472;47.592;17.640;2023-07-13T01:28:21;2.83;;;2.83;;
81006;SDS011;70472;47.592;17.640;2023-07-13T01:28:55;2.80;;;2.80;;
81006;SDS011;70472;47.592;17.640;2023-07-13T01:29:28;2.67;;;2.67;;
81006;SDS011;70472;47.592;17.640;2023-07-13T01:30:01;2.10;;;2.10;;
81006;SDS011;70472;47.592;17.640;2023-07-13T01:30:35;2.03;;;2.03;;
81006;SDS011;70472;47.592;17.640;2023-07-13T01:31:09;2.37;;;2.37;;
81006;SDS011;70472;47.592;17.640;2023-07-13T01:31:43;2.23;;;2.23;;
81006;SDS011;70472;47.592;17.640;2023-07-13T01:32:16;2.50;;;2.50;;
81006;SDS011;70472;47.592;17.640;2023-07-13T01:32:57;2.70;;;2.70;;
81006;SDS011;70472;47.592;17.640;2023-07-13T01:33:30;2.33;;;2.33;;
81006;SDS011;70472;47.592;17.640;2023-07-13T01:34:03;2.33;;;2.33;;
81006;SDS011;70472;47.592;17.640;2023-07-13T01:34:35;2.80;;;2.80;;
81006;SDS011;70472;47.592;17.640;2023-07-13T01:35:08;2.77;;;2.77;;
81006;SDS011;70472;47.592;17.640;2023-07-13T01:35:42;3.03;;;3.03;;
81006;SDS011;70472;47.592;17.640;2023-07-13T01:36:16;3.00;;;3.00;;
81006;SDS011;70472;47.592;17.640;2023-07-13T01:36:48;3.17;;;3.17;;
81006;SDS011;70472;47.592;17.640;2023-07-13T01:37:21;2.93;;;2.93;;
81006;SDS011;70472;47.592;17.640;2023-07-13T01:37:56;2.47;;;2.47;;
81006;SDS011;70472;47.592;17.640;2023-07-13T01:38:28;3.00;;;3.00;;
81006;SDS011;70472;47.592;17.640;2023-07-13T01:39:01;2.80;;;2.80;;
81006;SDS011;70472;47.592;17.640;2023-07-13T01:39:35;2.73;;;2.73;;
81006;SDS011;70472;47.592;17.640;2023-07-13T01:40:08;2.93;;;2.93;;
81006;SDS011;70472;47.592;17.640;2023-07-13T01:40:41;2.90;;;2.90;;
81006;SDS011;70472;47.592;17.640;2023-07-13T01:41:13;2.80;;;2.80;;
81006;SDS011;70472;47.592;17.640;2023-07-13T01:41:46;2.60;;;2.60;;
81006;SDS011;70472;47.592;17.640;2023-07-13T01:42:18;2.50;;;2.50;;
81006;SDS011;70472;47.592;17.640;2023-07-13T01:42:52;2.47;;;2.47;;
81006;SDS011;70472;47.592;17.640;2023-07-13T01:43:25;1.93;;;1.93;;
81006;SDS011;70472;47.592;17.640;2023-07-13T01:43:57;2.00;;;2.00;;
81006;SDS011;70472;47.592;17.640;2023-07-13T01:44:29;2.13;;;2.13;;
81006;SDS011;70472;47.592;17.640;2023-07-13T01:45:02;2.23;;;2.23;;
81006;SDS011;70472;47.592;17.640;2023-07-13T01:45:35;2.40;;;2.40;;
81006;SDS011;70472;47.592;17.640;2023-07-13T01:46:08;2.70;;;2.70;;
81006;SDS011;70472;47.592;17.640;2023-07-13T01:46:52;2.53;;;2.53;;
81006;SDS011;70472;47.592;17.640;2023-07-13T01:47:25;2.50;;;2.50;;
81006;SDS011;70472;47.592;17.640;2023-07-13T01:47:57;2.33;;;2.33;;
81006;SDS011;70472;47.592;17.640;2023-07-13T01:48:30;2.27;;;2.27;;
81006;SDS011;70472;47.592;17.640;2023-07-13T01:49:02;2.03;;;2.03;;
81006;SDS011;70472;47.592;17.640;2023-07-13T01:49:35;2.03;;;2.03;;
81006;SDS011;70472;47.592;17.640;2023-07-13T01:50:07;2.40;;;2.40;;
81006;SDS011;70472;47.592;17.640;2023-07-13T01:50:42;2.53;;;2.53;;
81006;SDS011;70472;47.592;17.640;2023-07-13T01:51:15;2.53;;;2.53;;
81006;SDS011;70472;47.592;17.640;2023-07-13T01:51:49;2.17;;;2.17;;
81006;SDS011;70472;47.592;17.640;2023-07-13T01:52:21;2.30;;;2.30;;
81006;SDS011;70472;47.592;17.640;2023-07-13T01:52:55;2.30;;;2.30;;
81006;SDS011;70472;47.592;17.640;2023-07-13T01:53:27;2.27;;;2.27;;
81006;SDS011;70472;47.592;17.640;2023-07-13T01:54:00;2.47;;;2.47;;
81006;SDS011;70472;47.592;17.640;2023-07-13T01:54:32;2.53;;;2.53;;
81006;SDS011;70472;47.592;17.640;2023-07-13T01:55:04;2.23;;;2.23;;
81006;SDS011;70472;47.592;17.640;2023-07-13T01:55:38;2.40;;;2.40;;
81006;SDS011;70472;47.592;17.640;2023-07-13T01:56:10;2.47;;;2.47;;
81006;SDS011;70472;47.592;17.640;2023-07-13T01:56:43;2.37;;;2.37;;
81006;SDS011;70472;47.592;17.640;2023-07-13T01:57:15;2.30;;;2.30;;
81006;SDS011;70472;47.592;17.640;2023-07-13T01:57:48;2.13;;;2.13;;
81006;SDS011;70472;47.592;17.640;2023-07-13T01:58:21;2.07;;;2.07;;
81006;SDS011;70472;47.592;17.640;2023-07-13T01:58:53;2.30;;;2.30;;
81006;SDS011;70472;47.592;17.640;2023-07-13T01:59:26;2.23;;;2.23;;
81006;SDS011;70472;47.592;17.640;2023-07-13T01:59:58;2.20;;;2.20;;
81006;SDS011;70472;47.592;17.640;2023-07-13T02:00:31;2.43;;;2.43;;
81006;SDS011;70472;47.592;17.640;2023-07-13T02:01:06;2.43;;;2.43;;
81006;SDS011;70472;47.592;17.640;2023-07-13T02:01:38;1.97;;;1.97;;
81006;SDS011;70472;47.592;17.640;2023-07-13T02:02:11;2.03;;;2.03;;
81006;SDS011;70472;47.592;17.640;2023-07-13T02:02:43;2.17;;;2.17;;
81006;SDS011;70472;47.592;17.640;2023-07-13T02:03:16;2.10;;;2.10;;
81006;SDS011;70472;47.592;17.640;2023-07-13T02:03:49;2.20;;;2.20;;
81006;SDS011;70472;47.592;17.640;2023-07-13T02:04:21;2.17;;;2.17;;
81006;SDS011;70472;47.592;17.640;2023-07-13T02:04:56;2.50;;;2.50;;
81006;SDS011;70472;47.592;17.640;2023-07-13T02:05:28;2.47;;;2.47;;
81006;SDS011;70472;47.592;17.640;2023-07-13T02:06:01;2.07;;;2.07;;
81006;SDS011;70472;47.592;17.640;2023-07-13T02:06:34;2.10;;;2.10;;
81006;SDS011;70472;47.592;17.640;2023-07-13T02:07:07;2.27;;;2.27;;
81006;SDS011;70472;47.592;17.640;2023-07-13T02:07:41;2.13;;;2.13;;
81006;SDS011;70472;47.592;17.640;2023-07-13T02:08:13;2.30;;;2.30;;
81006;SDS011;70472;47.592;17.640;2023-07-13T02:08:46;2.40;;;2.40;;
81006;SDS011;70472;47.592;17.640;2023-07-13T02:09:18;2.27;;;2.27;;
81006;SDS011;70472;47.592;17.640;2023-07-13T02:09:51;2.27;;;2.27;;
81006;SDS011;70472;47.592;17.640;2023-07-13T02:10:23;2.20;;;2.20;;
81006;SDS011;70472;47.592;17.640;2023-07-13T02:10:56;2.23;;;2.23;;
81006;SDS011;70472;47.592;17.640;2023-07-13T02:11:28;2.33;;;2.33;;
81006;SDS011;70472;47.592;17.640;2023-07-13T02:12:01;2.10;;;2.10;;
81006;SDS011;70472;47.592;17.640;2023-07-13T02:12:37;2.43;;;2.43;;
81006;SDS011;70472;47.592;17.640;2023-07-13T02:13:10;2.00;;;2.00;;
81006;SDS011;70472;47.592;17.640;2023-07-13T02:13:43;2.30;;;2.30;;
81006;SDS011;70472;47.592;17.640;2023-07-13T02:14:15;2.13;;;2.13;;
81006;SDS011;70472;47.592;17.640;2023-07-13T02:14:48;2.30;;;2.30;;
81006;SDS011;70472;47.592;17.640;2023-07-13T02:15:20;2.27;;;2.27;;
81006;SDS011;70472;47.592;17.640;2023-07-13T02:15:53;2.33;;;2.33;;
81006;SDS011;70472;47.592;17.640;2023-07-13T02:16:25;2.20;;;2.20;;
81006;SDS011;70472;47.592;17.640;2023-07-13T02:16:58;2.47;;;2.47;;
81006;SDS011;70472;47.592;17.640;2023-07-13T02:17:30;2.60;;;2.60;;
81006;SDS011;70472;47.592;17.640;2023-07-13T02:18:03;2.23;;;2.23;;
81006;SDS011;70472;47.592;17.640;2023-07-13T02:18:35;2.60;;;2.60;;
81006;SDS011;70472;47.592;17.640;2023-07-13T02:19:08;2.37;;;2.37;;
81006;SDS011;70472;47.592;17.640;2023-07-13T02:19:40;2.00;;;2.00;;
81006;SDS011;70472;47.592;17.640;2023-07-13T02:20:13;2.13;;;2.13;;
81006;SDS011;70472;47.592;17.640;2023-07-13T02:20:45;2.47;;;2.47;;
81006;SDS011;70472;47.592;17.640;2023-07-13T02:21:18;2.50;;;2.50;;
81006;SDS011;70472;47.592;17.640;2023-07-13T02:21:50;2.47;;;2.47;;
81006;SDS011;70472;47.592;17.640;2023-07-13T02:22:23;2.33;;;2.33;;
81006;SDS011;70472;47.592;17.640;2023-07-13T02:22:55;2.67;;;2.67;;
81006;SDS011;70472;47.592;17.640;2023-07-13T02:23:28;2.33;;;2.33;;
81006;SDS011;70472;47.592;17.640;2023-07-13T02:24:01;2.20;;;2.20;;
81006;SDS011;70472;47.592;17.640;2023-07-13T02:24:33;2.50;;;2.50;;
81006;SDS011;70472;47.592;17.640;2023-07-13T02:25:05;2.23;;;2.23;;
81006;SDS011;70472;47.592;17.640;2023-07-13T02:25:38;2.50;;;2.50;;
81006;SDS011;70472;47.592;17.640;2023-07-13T02:26:12;2.77;;;2.77;;
81006;SDS011;70472;47.592;17.640;2023-07-13T02:26:45;2.43;;;2.43;;
81006;SDS011;70472;47.592;17.640;2023-07-13T02:27:18;1.93;;;1.93;;
81006;SDS011;70472;47.592;17.640;2023-07-13T02:27:51;2.00;;;2.00;;
81006;SDS011;70472;47.592;17.640;2023-07-13T02:28:24;2.53;;;2.53;;
81006;SDS011;70472;47.592;17.640;2023-07-13T02:28:56;2.27;;;2.27;;
81006;SDS011;70472;47.592;17.640;2023-07-13T02:29:29;2.20;;;2.20;;
81006;SDS011;70472;47.592;17.640;2023-07-13T02:30:01;2.20;;;2.20;;
81006;SDS011;70472;47.592;17.640;2023-07-13T02:30:34;2.17;;;2.17;;
81006;SDS011;70472;47.592;17.640;2023-07-13T02:31:09;2.43;;;2.43;;
81006;SDS011;70472;47.592;17.640;2023-07-13T02:31:45;2.37;;;2.37;;
81006;SDS011;70472;47.592;17.640;2023-07-13T02:32:17;2.53;;;2.53;;
81006;SDS011;70472;47.592;17.640;2023-07-13T02:32:50;2.37;;;2.37;;
81006;SDS011;70472;47.592;17.640;2023-07-13T02:33:22;2.43;;;2.43;;
81006;SDS011;70472;47.592;17.640;2023-07-13T02:33:55;2.27;;;2.27;;
81006;SDS011;70472;47.592;17.640;2023-07-13T02:34:27;2.23;;;2.23;;
81006;SDS011;70472;47.592;17.640;2023-07-13T02:35:01;2.07;;;2.07;;
81006;SDS011;70472;47.592;17.640;2023-07-13T02:35:34;2.23;;;2.23;;
81006;SDS011;70472;47.592;17.640;2023-07-13T02:36:06;2.47;;;2.47;;
81006;SDS011;70472;47.592;17.640;2023-07-13T02:36:39;2.30;;;2.30;;
81006;SDS011;70472;47.592;17.640;2023-07-13T02:37:12;2.10;;;2.10;;
81006;SDS011;70472;47.592;17.640;2023-07-13T02:37:44;2.27;;;2.27;;
81006;SDS011;70472;47.592;17.640;2023-07-13T02:38:16;2.30;;;2.30;;
81006;SDS011;70472;47.592;17.640;2023-07-13T02:38:49;2.27;;;2.27;;
81006;SDS011;70472;47.592;17.640;2023-07-13T02:39:22;2.30;;;2.30;;
81006;SDS011;70472;47.592;17.640;2023-07-13T02:39:54;2.87;;;2.87;;
81006;SDS011;70472;47.592;17.640;2023-07-13T02:40:27;2.40;;;2.40;;
81006;SDS011;70472;47.592;17.640;2023-07-13T02:40:59;2.57;;;2.57;;
81006;SDS011;70472;47.592;17.640;2023-07-13T02:41:32;2.53;;;2.53;;
81006;SDS011;70472;47.592;17.640;2023-07-13T02:42:05;2.07;;;2.07;;
81006;SDS011;70472;47.592;17.640;2023-07-13T02:42:38;2.00;;;2.00;;
81006;SDS011;70472;47.592;17.640;2023-07-13T02:43:11;2.10;;;2.10;;
81006;SDS011;70472;47.592;17.640;2023-07-13T02:43:44;2.20;;;2.20;;
81006;SDS011;70472;47.592;17.640;2023-07-13T02:44:16;1.93;;;1.93;;
81006;SDS011;70472;47.592;17.640;2023-07-13T02:44:49;2.30;;;2.30;;
81006;SDS011;70472;47.592;17.640;2023-07-13T02:45:22;2.33;;;2.33;;
81006;SDS011;70472;47.592;17.640;2023-07-13T02:45:54;1.97;;;1.97;;
81006;SDS011;70472;47.592;17.640;2023-07-13T02:46:26;2.37;;;2.37;;
81006;SDS011;70472;47.592;17.640;2023-07-13T02:47:00;2.63;;;2.63;;
81006;SDS011;70472;47.592;17.640;2023-07-13T02:47:33;2.37;;;2.37;;
81006;SDS011;70472;47.592;17.640;2023-07-13T02:48:08;2.43;;;2.43;;
81006;SDS011;70472;47.592;17.640;2023-07-13T02:48:40;1.93;;;1.93;;
81006;SDS011;70472;47.592;17.640;2023-07-13T02:49:12;2.30;;;2.30;;
81006;SDS011;70472;47.592;17.640;2023-07-13T02:49:46;2.17;;;2.17;;
81006;SDS011;70472;47.592;17.640;2023-07-13T02:50:18;2.23;;;2.23;;
81006;SDS011;70472;47.592;17.640;2023-07-13T02:50:51;2.57;;;2.57;;
81006;SDS011;70472;47.592;17.640;2023-07-13T02:51:24;2.43;;;2.43;;
81006;SDS011;70472;47.592;17.640;2023-07-13T02:51:57;2.23;;;2.23;;
81006;SDS011;70472;47.592;17.640;2023-07-13T02:52:29;2.30;;;2.30;;
81006;SDS011;70472;47.592;17.640;2023-07-13T02:53:02;2.07;;;2.07;;
81006;SDS011;70472;47.592;17.640;2023-07-13T02:53:34;2.27;;;2.27;;
81006;SDS011;70472;47.592;17.640;2023-07-13T02:54:06;2.23;;;2.23;;
81006;SDS011;70472;47.592;17.640;2023-07-13T02:54:39;2.30;;;2.30;;
81006;SDS011;70472;47.592;17.640;2023-07-13T02:55:11;2.70;;;2.70;;
81006;SDS011;70472;47.592;17.640;2023-07-13T02:55:44;2.63;;;2.63;;
81006;SDS011;70472;47.592;17.640;2023-07-13T02:56:18;2.37;;;2.37;;
81006;SDS011;70472;47.592;17.640;2023-07-13T02:56:57;2.53;;;2.53;;
81006;SDS011;70472;47.592;17.640;2023-07-13T02:57:29;2.33;;;2.33;;
81006;SDS011;70472;47.592;17.640;2023-07-13T02:58:02;2.23;;;2.23;;
81006;SDS011;70472;47.592;17.640;2023-07-13T02:58:34;2.70;;;2.70;;
81006;SDS011;70472;47.592;17.640;2023-07-13T02:59:07;2.47;;;2.47;;
81006;SDS011;70472;47.592;17.640;2023-07-13T02:59:40;2.33;;;2.33;;
81006;SDS011;70472;47.592;17.640;2023-07-13T03:00:12;2.43;;;2.43;;
81006;SDS011;70472;47.592;17.640;2023-07-13T03:00:46;2.30;;;2.30;;
81006;SDS011;70472;47.592;17.640;2023-07-13T03:01:21;2.23;;;2.23;;
81006;SDS011;70472;47.592;17.640;2023-07-13T03:01:54;2.50;;;2.50;;
81006;SDS011;70472;47.592;17.640;2023-07-13T03:02:27;2.33;;;2.33;;
81006;SDS011;70472;47.592;17.640;2023-07-13T03:03:00;2.43;;;2.43;;
81006;SDS011;70472;47.592;17.640;2023-07-13T03:03:34;2.57;;;2.57;;
81006;SDS011;70472;47.592;17.640;2023-07-13T03:04:06;2.53;;;2.53;;
81006;SDS011;70472;47.592;17.640;2023-07-13T03:04:39;2.17;;;2.17;;
81006;SDS011;70472;47.592;17.640;2023-07-13T03:05:11;2.23;;;2.23;;
81006;SDS011;70472;47.592;17.640;2023-07-13T03:05:45;2.27;;;2.27;;
81006;SDS011;70472;47.592;17.640;2023-07-13T03:06:17;2.47;;;2.47;;
81006;SDS011;70472;47.592;17.640;2023-07-13T03:06:54;2.27;;;2.27;;
81006;SDS011;70472;47.592;17.640;2023-07-13T03:07:26;2.33;;;2.33;;
81006;SDS011;70472;47.592;17.640;2023-07-13T03:07:59;2.57;;;2.57;;
81006;SDS011;70472;47.592;17.640;2023-07-13T03:08:31;2.57;;;2.57;;
81006;SDS011;70472;47.592;17.640;2023-07-13T03:09:04;2.43;;;2.43;;
81006;SDS011;70472;47.592;17.640;2023-07-13T03:09:39;2.37;;;2.37;;
81006;SDS011;70472;47.592;17.640;2023-07-13T03:10:12;2.53;;;2.53;;
81006;SDS011;70472;47.592;17.640;2023-07-13T03:10:58;2.77;;;2.77;;
81006;SDS011;70472;47.592;17.640;2023-07-13T03:11:35;2.57;;;2.57;;
81006;SDS011;70472;47.592;17.640;2023-07-13T03:12:30;2.63;;;2.63;;
81006;SDS011;70472;47.592;17.640;2023-07-13T03:13:03;2.43;;;2.43;;
81006;SDS011;70472;47.592;17.640;2023-07-13T03:13:36;2.27;;;2.27;;
81006;SDS011;70472;47.592;17.640;2023-07-13T03:14:09;2.73;;;2.73;;
81006;SDS011;70472;47.592;17.640;2023-07-13T03:14:43;2.33;;;2.33;;
81006;SDS011;70472;47.592;17.640;2023-07-13T03:15:15;2.37;;;2.37;;
81006;SDS011;70472;47.592;17.640;2023-07-13T03:15:49;2.67;;;2.67;;
81006;SDS011;70472;47.592;17.640;2023-07-13T03:16:21;2.40;;;2.40;;
81006;SDS011;70472;47.592;17.640;2023-07-13T03:16:55;2.00;;;2.00;;
81006;SDS011;70472;47.592;17.640;2023-07-13T03:17:32;2.30;;;2.30;;
81006;SDS011;70472;47.592;17.640;2023-07-13T03:18:05;2.37;;;2.37;;
81006;SDS011;70472;47.592;17.640;2023-07-13T03:18:38;2.50;;;2.50;;
81006;SDS011;70472;47.592;17.640;2023-07-13T03:19:13;2.63;;;2.63;;
81006;SDS011;70472;47.592;17.640;2023-07-13T03:19:49;2.60;;;2.60;;
81006;SDS011;70472;47.592;17.640;2023-07-13T03:20:22;2.57;;;2.57;;
81006;SDS011;70472;47.592;17.640;2023-07-13T03:20:55;2.43;;;2.43;;
81006;SDS011;70472;47.592;17.640;2023-07-13T03:21:28;2.57;;;2.57;;
81006;SDS011;70472;47.592;17.640;2023-07-13T03:22:00;2.27;;;2.27;;
81006;SDS011;70472;47.592;17.640;2023-07-13T03:22:33;2.40;;;2.40;;
81006;SDS011;70472;47.592;17.640;2023-07-13T03:23:06;2.63;;;2.63;;